Latest Weather Observations for Tamworth Airport

IDN60801

Issued at 9:05 am EDT Monday 24 November 2014 (issued every 30 minutes, with the page automatically refreshed every 10 minutes)

About weather observations | Map of weather stations | Latest weather observations for NSW | Other Formats
Station Details ID: 055325 Name: TAMWORTH AIRPORT AWS Lat: -31.07 Lon: 150.84 Height: 394.9 m
Data from the previous 72 hours. | See also: Recent months at Tamworth Airport
Date/Time
EDT
Temp
°C
App
Temp
°C
Dew
Point
Rel
Hum
%
Delta-T
°C
Wind Press
QNH
hPa
Press
MSL
hPa
Rain
since 9 am
mm
Dir
 
Spd
km/h
Gust
km/h
Spd
kts
Gust
kts
24/09:00am 26.5 26.5 15.2 49 6.9 SSE 9 11 5 6 1015.5 1013.9 4.6
24/08:30am 25.4 24.3 15.4 54 6.1 SE 15 17 8 9 1015.1 1013.5 4.6
24/08:00am 24.3 23.4 15.8 59 5.2 SE 15 20 8 11 1014.9 1013.3 4.6
24/07:30am 23.1 22.0 16.4 66 4.1 SSE 17 20 9 11 1015.1 1013.5 4.6
24/07:00am 22.6 22.9 17.1 71 3.4 SSW 11 15 6 8 1014.9 1013.3 4.6
24/06:30am 22.5 23.7 16.8 70 3.5 SSW 6 11 3 6 1015.1 1013.5 4.6
24/06:00am 22.7 23.6 16.7 69 3.7 ENE 7 7 4 4 1015.2 1013.7 4.6
24/05:30am 23.1 23.4 15.9 64 4.4 ESE 9 11 5 6 1015.0 1013.4 4.6
24/05:00am 22.9 23.8 16.0 65 4.2 S 6 9 3 5 1014.9 1013.3 4.6
24/04:30am 22.7 22.8 15.5 64 4.4 S 9 15 5 8 1014.7 1013.1 4.6
24/04:00am 24.4 24.4 14.2 53 6.1 ENE 7 11 4 6 1014.5 1012.9 4.6
24/03:30am 23.7 23.1 15.7 61 4.9 ESE 13 17 7 9 1014.8 1013.2 4.6
24/03:00am 23.7 23.7 15.2 59 5.2 NW 9 11 5 6 1014.8 1013.2 4.6
24/02:30am 24.6 24.3 14.4 53 6.2 SW 9 9 5 5 1014.9 1013.3 4.6
24/02:00am 24.8 22.6 14.3 52 6.3 S 19 24 10 13 1015.0 1013.4 4.6
24/01:30am 25.2 22.4 13.1 47 7.2 S 20 30 11 16 1014.9 1013.3 4.6
24/01:00am 29.0 24.7 10.6 32 10.6 NE 24 39 13 21 1014.3 1012.7 4.6
24/12:30am 29.0 24.7 10.6 32 10.6 NNE 24 33 13 18 1015.1 1013.5 4.6
24/12:00am 26.8 26.1 12.1 40 8.6 W 7 13 4 7 1016.2 1014.6 4.6
 
Date/Time
EDT
Temp
°C
App
Temp
°C
Dew
Point
Rel
Hum
%
Delta-T
°C
Wind Press
QNH
hPa
Press
MSL
hPa
Rain
since 9 am
mm
Dir
 
Spd
km/h
Gust
km/h
Spd
kts
Gust
kts
23/11:30pm 29.5 24.4 10.6 31 10.9 NE 28 41 15 22 1015.3 1013.8 4.6
23/11:00pm 28.1 19.4 11.2 35 9.8 NE 48 63 26 34 1014.4 1012.8 4.6
23/10:44pm 26.7 21.0 14.1 46 7.6 NNE 37 56 20 30 1015.1 1013.5 4.6
23/10:30pm 24.9 20.7 16.1 58 5.5 NNE 33 43 18 23 1016.0 1014.4 4.6
23/10:16pm 24.4 19.4 16.1 60 5.1 NNE 37 43 20 23 1016.4 1014.8 4.4
23/10:00pm 24.6 21.9 16.6 61 5.0 ENE 26 32 14 17 1017.9 1016.4 4.4
23/09:30pm 24.4 24.4 17.1 63 4.6 ESE 13 19 7 10 1019.4 1017.8 3.6
23/09:08pm 24.6 23.3 17.3 64 4.6 SE 20 30 11 16 1018.7 1017.1 3.4
23/09:00pm 24.2 21.8 16.5 62 4.8 SE 24 30 13 16 1018.5 1016.9 3.4
23/08:44pm 25.5 23.1 14.3 50 6.8 S 20 32 11 17 1018.0 1016.5 1.4
23/08:30pm 29.9 24.6 11.4 32 10.9 ESE 30 41 16 22 1016.3 1014.7 0.0
23/08:20pm 30.7 25.0 11.1 30 11.5 E 32 41 17 22 1014.9 1013.3 0.0
23/08:01pm 31.5 23.2 11.3 29 11.9 ENE 46 65 25 35 1013.8 1012.2 0.0
23/08:00pm 31.5 22.9 11.8 30 11.7 ENE 48 65 26 35 1013.8 1012.2 0.0
23/07:40pm 32.8 25.0 11.3 27 12.8 ENE 43 61 23 33 1013.3 1011.7 0.0
23/07:36pm 33.4 27.3 11.9 27 12.9 ENE 35 48 19 26 1013.4 1011.8 0.0
23/07:30pm 33.5 29.6 9.5 23 13.9 E 20 28 11 15 1013.2 1011.6 0.0
23/07:00pm 34.2 31.1 8.8 21 14.6 W 15 20 8 11 1012.0 1010.4 0.0
23/06:30pm 35.7 31.2 8.5 19 15.7 WSW 22 30 12 16 1011.7 1010.1 0.0
23/06:00pm 37.6 33.6 8.4 17 17.0 NNW 19 22 10 12 1011.0 1009.4 0.0
23/05:30pm 38.0 34.1 8.7 17 17.1 N 19 28 10 15 1010.4 1008.7 0.0
23/05:00pm 38.9 34.5 7.6 15 18.1 N 20 28 11 15 1010.4 1008.7 0.0
23/04:30pm 39.6 35.0 8.1 15 18.4 NNW 22 32 12 17 1010.8 1009.2 0.0
23/04:00pm 39.7 34.7 8.2 15 18.4 N 24 32 13 17 1011.1 1009.5 0.0
23/03:30pm 41.1 37.9 8.3 14 19.3 NNW 15 30 8 16 1011.3 1009.7 0.0
23/03:00pm 40.0 35.1 8.5 15 18.5 N 24 33 13 18 1011.8 1010.2 0.0
23/02:30pm 40.3 36.3 10.5 17 18.0 NNW 22 32 12 17 1012.4 1010.8 0.0
23/02:00pm 39.6 35.2 9.1 16 18.0 NW 22 39 12 21 1012.5 1010.9 0.0
23/01:30pm 38.8 35.0 11.0 19 16.8 N 22 30 12 16 1013.0 1011.3 0.0
23/01:00pm 39.1 36.0 10.4 18 17.2 N 17 28 9 15 1013.5 1011.9 0.0
23/12:30pm 39.8 36.8 11.8 19 17.2 WNW 19 33 10 18 1013.9 1012.3 0.0
23/12:00pm 38.5 35.6 12.3 21 16.1 N 19 24 10 13 1014.4 1012.8 0.0
23/11:30am 37.3 34.6 14.6 26 14.4 N 22 33 12 18 1014.6 1013.0 0.0
23/11:00am 37.0 34.6 14.3 26 14.3 NW 20 32 11 17 1014.9 1013.3 0.0
23/10:30am 35.4 32.5 15.2 30 12.8 N 24 35 13 19 1015.0 1013.4 0.0
23/10:00am 34.3 32.0 15.7 32 11.8 N 22 33 12 18 1015.5 1013.9 0.0
23/09:30am 33.2 30.1 15.7 35 11.1 N 26 37 14 20 1015.5 1013.9 0.0
23/09:00am 33.4 31.0 16.3 36 10.9 N 24 39 13 21 1015.2 1013.7 0.0
23/08:30am 31.1 31.5 16.3 41 9.4 N 9 15 5 8 1015.2 1013.7 0.0
23/08:00am 30.6 31.7 16.6 43 8.9 NE 6 11 3 6 1015.1 1013.5 0.0
23/07:30am 28.8 29.7 16.0 45 8.0 ESE 6 9 3 5 1014.7 1013.1 0.0
23/07:00am 26.7 27.2 16.6 54 6.4 SSE 9 11 5 6 1014.4 1012.8 0.0
23/06:30am 24.8 26.0 17.3 63 4.7 ESE 7 11 4 6 1014.0 1012.4 0.0
23/06:00am 22.9 23.5 16.7 68 3.9 SE 9 13 5 7 1013.9 1012.3 0.0
23/05:30am 21.5 21.3 15.8 70 3.5 SE 11 15 6 8 1013.7 1012.1 0.0
23/05:00am 21.2 20.8 15.3 69 3.6 S 11 17 6 9 1013.3 1011.7 0.0
23/04:30am 21.6 23.5 15.7 69 3.6 CALM 0 0 0 0 1013.1 1011.5 0.0
23/04:00am 20.5 20.3 13.7 65 4.0 SW 7 11 4 6 1013.2 1011.6 0.0
23/03:30am 23.8 24.2 15.3 59 5.2 SSE 7 11 4 6 1012.4 1010.8 0.0
23/03:00am 24.2 23.2 15.7 59 5.2 SSE 15 15 8 8 1012.3 1010.7 0.0
23/02:30am 24.6 24.4 15.8 58 5.4 S 11 13 6 7 1012.5 1010.9 0.0
23/02:00am 25.1 23.9 16.0 57 5.6 SSE 17 20 9 11 1012.5 1010.9 0.0
23/01:30am 25.5 23.9 14.9 52 6.5 SSE 17 17 9 9 1012.8 1011.1 0.0
23/01:00am 26.1 24.5 14.9 50 6.9 SSE 17 19 9 10 1013.0 1011.3 0.0
23/12:30am 27.3 25.6 14.7 46 7.7 SE 17 22 9 12 1013.1 1011.5 0.0
23/12:00am 27.4 25.5 13.0 41 8.6 SSE 15 19 8 10 1013.2 1011.6 0.0
 
Date/Time
EDT
Temp
°C
App
Temp
°C
Dew
Point
Rel
Hum
%
Delta-T
°C
Wind Press
QNH
hPa
Press
MSL
hPa
Rain
since 9 am
mm
Dir
 
Spd
km/h
Gust
km/h
Spd
kts
Gust
kts
22/11:30pm 28.0 24.9 11.5 35 9.6 SSE 19 22 10 12 1013.2 1011.6 0.0
22/11:00pm 28.4 23.9 5.9 24 12.0 S 19 20 10 11 1013.1 1011.5 0.0
22/10:30pm 29.1 25.9 5.2 22 12.6 SE 11 17 6 9 1012.9 1011.2 0.0
22/10:00pm 31.2 29.2 6.3 21 13.6 W 6 - 3 - 1012.5 1010.9 0.0
22/09:30pm 30.7 29.6 5.2 20 13.6 CALM 0 0 0 0 1011.9 1010.3 0.0
22/09:00pm 29.8 28.7 5.1 21 13.1 CALM 0 0 0 0 1011.6 1010.0 0.0
22/08:30pm 31.8 30.7 5.3 19 14.2 CALM 0 0 0 0 1011.2 1009.6 0.0
22/08:00pm 33.1 30.8 4.8 17 15.2 W 6 7 3 4 1011.0 1009.4 0.0
22/07:30pm 33.6 30.4 5.2 17 15.4 W 11 13 6 7 1010.6 1008.9 0.0
22/07:00pm 37.0 33.2 4.0 13 17.9 WNW 13 19 7 10 1010.3 1008.6 0.0
22/06:30pm 38.9 37.3 4.4 12 19.0 W 2 9 1 5 1009.9 1008.3 0.0
22/06:00pm 38.4 35.4 4.0 12 18.8 NNW 9 19 5 10 1009.8 1008.2 0.0
22/05:30pm 38.9 34.6 3.1 11 19.3 WNW 15 20 8 11 1009.8 1008.2 0.0
22/05:00pm 39.4 34.5 2.2 10 19.9 NW 17 26 9 14 1010.1 1008.4 0.0
22/04:30pm 39.9 35.1 2.5 10 20.1 WNW 17 24 9 13 1010.3 1008.6 0.0
22/04:00pm 39.3 33.6 0.6 9 20.2 W 20 32 11 17 1010.4 1008.7 0.0
22/03:30pm 39.4 33.3 0.7 9 20.2 NW 22 35 12 19 1010.7 1009.0 0.0
22/03:00pm 39.7 34.3 2.4 10 20.0 WNW 20 33 11 18 1010.9 1009.3 0.0
22/02:30pm 38.3 32.2 2.7 11 19.0 NNW 24 28 13 15 1011.3 1009.7 0.0
22/02:00pm 38.5 33.0 4.1 12 18.8 WNW 22 30 12 16 1011.6 1010.0 0.0
22/01:30pm 37.7 33.3 4.6 13 18.1 NW 17 24 9 13 1012.0 1010.4 0.0
22/01:00pm 37.3 32.2 4.3 13 18.0 NW 20 30 11 16 1012.3 1010.7 0.0
22/12:30pm 36.8 32.6 5.9 15 17.2 SW 17 24 9 13 1012.8 1011.1 0.0
22/12:00pm 36.7 32.2 5.9 15 17.1 WSW 19 26 10 14 1013.2 1011.6 0.0
22/11:30am 36.4 31.8 6.6 16 16.7 W 20 32 11 17 1013.5 1011.9 0.0
22/11:00am 34.4 31.9 9.6 22 14.5 NNW 13 24 7 13 1013.6 1012.0 0.0
22/10:30am 33.1 30.6 9.8 24 13.5 N 13 20 7 11 1013.8 1012.2 0.0
22/10:00am 31.6 29.5 9.8 26 12.6 N 11 17 6 9 1014.2 1012.6 0.0
22/09:30am 30.9 30.4 9.2 26 12.4 E 2 13 1 7 1014.2 1012.6 0.0
22/09:00am 29.9 28.6 7.7 25 12.3 E 4 11 2 6 1014.5 1012.9 0.0
22/08:30am 28.1 26.4 7.4 27 11.3 S 6 11 3 6 1014.6 1013.0 0.0
22/08:00am 26.0 23.6 7.1 30 10.1 SSE 9 11 5 6 1014.4 1012.8 0.0
22/07:30am 24.7 23.0 8.2 35 9.0 SE 7 11 4 6 1014.1 1012.5 0.0
22/07:00am 22.2 20.7 9.0 43 7.2 SSE 7 11 4 6 1013.8 1012.2 0.0
22/06:30am 18.5 17.1 8.7 53 5.2 SE 6 9 3 5 1013.5 1011.9 0.0
22/06:00am 16.8 16.6 9.2 61 4.0 CALM 0 0 0 0 1013.1 1011.5 0.0
22/05:30am 17.9 16.1 9.3 57 4.6 SSE 9 11 5 6 1012.5 1010.9 0.0
22/05:00am 16.9 15.7 8.1 56 4.6 ESE 4 9 2 5 1012.1 1010.5 0.0
22/04:30am 18.0 17.7 8.6 54 5.0 CALM 0 2 0 1 1011.7 1010.1 0.0
22/04:00am 18.7 16.4 7.5 48 5.8 ENE 9 9 5 5 1011.4 1009.8 0.0
22/03:30am 19.5 18.7 6.3 42 6.7 CALM 0 0 0 0 1011.3 1009.7 0.0
22/03:00am 21.5 19.7 8.1 42 7.1 SSE 7 9 4 5 1011.3 1009.7 0.0
22/02:30am 21.4 19.1 7.6 41 7.3 SSE 9 9 5 5 1011.4 1009.8 0.0
22/02:00am 22.2 18.8 6.0 35 8.3 S 13 15 7 8 1011.6 1010.0 0.0
22/01:30am 22.3 19.6 3.9 30 9.1 WSW 7 7 4 4 1011.7 1010.1 0.0
22/01:00am 24.1 22.7 3.4 26 10.3 CALM 0 0 0 0 1011.9 1010.3 0.0
22/12:30am 24.4 21.7 3.7 26 10.4 ENE 7 9 4 5 1012.1 1010.5 0.0
22/12:00am 25.1 22.6 3.7 25 10.8 NNE 6 7 3 4 1012.2 1010.6 0.0
 
Date/Time
EDT
Temp
°C
App
Temp
°C
Dew
Point
Rel
Hum
%
Delta-T
°C
Wind Press
QNH
hPa
Press
MSL
hPa
Rain
since 9 am
mm
Dir
 
Spd
km/h
Gust
km/h
Spd
kts
Gust
kts
21/11:30pm 27.2 24.1 3.7 22 12.0 S 9 13 5 7 1012.1 1010.5 0.0
21/11:00pm 27.0 22.7 3.5 22 11.9 SSW 15 19 8 10 1011.9 1010.3 0.0
21/10:30pm 29.0 25.8 3.1 19 13.2 SSW 9 15 5 8 1011.5 1009.9 0.0
21/10:00pm 27.1 22.7 2.9 21 12.2 WSW 15 17 8 9 1011.1 1009.5 0.0
21/09:30pm 26.3 22.0 0.9 19 12.2 SW 13 15 7 8 1010.6 1008.9 0.0
21/09:00pm 27.1 23.0 0.0 17 12.9 SW 11 15 6 8 1010.1 1008.4 0.0
21/08:30pm 28.7 24.2 -0.5 15 14.0 WSW 13 17 7 9 1009.6 1008.0 0.0
21/08:00pm 31.0 25.7 -0.6 13 15.4 W 17 20 9 11 1009.1 1007.5 0.0
21/07:30pm 33.6 27.9 0.3 12 16.7 W 20 30 11 16 1008.7 1007.1 0.0
21/07:00pm 36.0 32.1 7.1 17 16.4 NW 17 24 9 13 1008.2 1006.5 0.0
21/06:30pm 35.8 30.9 7.0 17 16.2 WNW 22 33 12 18 1007.8 1006.1 0.0
21/06:00pm 36.8 31.0 7.8 17 16.7 WNW 28 37 15 20 1007.7 1006.0 0.0
21/05:30pm 35.8 28.3 7.8 18 16.0 WNW 37 44 20 24 1007.7 1006.0 0.0
21/05:00pm 35.7 30.6 7.7 18 16.0 NW 24 43 13 23 1007.7 1006.0 0.0
21/04:35pm 37.2 31.2 7.2 16 17.1 NW 28 46 15 25 1007.8 1006.1 0.0
21/04:30pm 36.3 30.2 6.5 16 16.7 WNW 28 37 15 20 1007.9 1006.2 0.0
21/04:00pm 36.2 29.9 7.3 17 16.4 WNW 30 41 16 22 1008.0 1006.3 0.0
21/03:30pm 37.4 30.7 5.4 14 17.7 WNW 30 41 16 22 1008.3 1006.6 0.0
21/03:00pm 36.6 29.9 3.7 13 17.7 NW 28 43 15 23 1008.7 1007.1 0.0
21/02:49pm 37.5 31.4 6.5 15 17.5 NW 28 48 15 26 1008.7 1007.1 0.0
21/02:30pm 36.6 32.4 8.4 18 16.3 WNW 20 30 11 16 1009.2 1007.6 0.0
21/02:00pm 35.6 32.4 11.9 24 14.4 NW 20 30 11 16 1009.6 1008.0 0.0
21/01:30pm 34.4 30.7 13.8 29 12.8 N 26 41 14 22 1010.3 1008.6 0.0
21/01:00pm 33.2 30.2 13.8 31 12.0 NW 22 37 12 20 1010.8 1009.2 0.0
21/12:30pm 33.2 29.6 14.3 32 11.8 N 26 41 14 22 1011.3 1009.7 0.0
21/12:00pm 33.5 29.0 15.5 34 11.4 NNW 33 46 18 25 1011.8 1010.2 0.0
21/11:30am 31.1 27.4 15.1 38 10.0 NNW 28 39 15 21 1012.2 1010.6 0.0
21/11:00am 31.6 28.0 16.3 39 9.7 N 30 41 16 22 1012.4 1010.8 0.0
21/10:30am 29.8 25.8 15.1 40 9.1 N 30 46 16 25 1012.6 1011.0 0.0
21/10:28am 31.1 27.2 15.5 39 9.8 N 30 48 16 26 1012.8 1011.1 0.0
21/10:00am 30.5 26.2 15.8 41 9.3 N 33 50 18 27 1012.9 1011.2 0.0
21/09:30am 29.2 25.1 16.0 44 8.3 N 32 41 17 22 1013.1 1011.5 0.0

Other Formats:

Comma delimited format used in spreadsheet applications
http://www.bom.gov.au/fwo/IDN60801/IDN60801.95762.axf

JavaScript Object Notation format (JSON) in row-major order
http://www.bom.gov.au/fwo/IDN60801/IDN60801.95762.json